Terminal Aerodrome Forecast
Issued by NWS

Home | Current Version | Previous Version | Text Only | Print | Product List | Glossary On
Versions: 1 2 3 4 5 6 7 8 9 10 11 12 13 14 15 16 17 18
000
FTUS41 KBOX 261130
TAFBED
TAF
KBED 261130Z 2612/2712 23004KT P6SM BKN200
     FM261500 23006KT P6SM VCSH BKN060
     FM261800 27007KT P6SM VCSH BKN040
     FM262000 30007KT P6SM SCT040
     FM262100 31007KT P6SM SCT250
     FM270000 VRB03KT P6SM SKC=

USA.gov is the U.S. government's official web portal to all federal, state and local government web resources and services.